sensor_id;sensor_type;location;lat;lon;timestamp;P1;durP1;ratioP1;P2;durP2;ratioP2
69087;SDS011;56190;43.562;5.036;2022-07-04T00:02:04;3.38;;;2.50;;
69087;SDS011;56190;43.562;5.036;2022-07-04T00:04:29;5.55;;;3.00;;
69087;SDS011;56190;43.562;5.036;2022-07-04T00:06:55;6.55;;;3.05;;
69087;SDS011;56190;43.562;5.036;2022-07-04T00:09:20;4.43;;;2.45;;
69087;SDS011;56190;43.562;5.036;2022-07-04T00:11:45;5.32;;;2.70;;
69087;SDS011;56190;43.562;5.036;2022-07-04T00:14:10;4.80;;;2.65;;
69087;SDS011;56190;43.562;5.036;2022-07-04T00:16:36;6.15;;;3.20;;
69087;SDS011;56190;43.562;5.036;2022-07-04T00:19:01;3.85;;;2.83;;
69087;SDS011;56190;43.562;5.036;2022-07-04T00:21:26;5.72;;;2.95;;
69087;SDS011;56190;43.562;5.036;2022-07-04T00:23:52;6.78;;;3.03;;
69087;SDS011;56190;43.562;5.036;2022-07-04T00:26:17;5.25;;;3.20;;
69087;SDS011;56190;43.562;5.036;2022-07-04T00:28:43;6.50;;;3.00;;
69087;SDS011;56190;43.562;5.036;2022-07-04T00:31:08;8.27;;;3.15;;
69087;SDS011;56190;43.562;5.036;2022-07-04T00:33:33;4.63;;;3.28;;
69087;SDS011;56190;43.562;5.036;2022-07-04T00:35:59;4.28;;;3.08;;
69087;SDS011;56190;43.562;5.036;2022-07-04T00:38:24;4.80;;;3.22;;
69087;SDS011;56190;43.562;5.036;2022-07-04T00:40:49;6.10;;;3.22;;
69087;SDS011;56190;43.562;5.036;2022-07-04T00:43:20;4.35;;;2.78;;
69087;SDS011;56190;43.562;5.036;2022-07-04T00:45:46;6.27;;;3.30;;
69087;SDS011;56190;43.562;5.036;2022-07-04T00:48:11;4.30;;;2.78;;
69087;SDS011;56190;43.562;5.036;2022-07-04T00:50:37;7.20;;;3.40;;
69087;SDS011;56190;43.562;5.036;2022-07-04T00:53:02;4.53;;;2.80;;
69087;SDS011;56190;43.562;5.036;2022-07-04T00:55:27;5.30;;;2.75;;
69087;SDS011;56190;43.562;5.036;2022-07-04T00:57:53;5.97;;;2.90;;
69087;SDS011;56190;43.562;5.036;2022-07-04T01:00:18;6.00;;;3.20;;
69087;SDS011;56190;43.562;5.036;2022-07-04T01:02:43;5.97;;;2.90;;
69087;SDS011;56190;43.562;5.036;2022-07-04T01:05:09;4.90;;;3.03;;
69087;SDS011;56190;43.562;5.036;2022-07-04T01:07:35;4.10;;;2.90;;
69087;SDS011;56190;43.562;5.036;2022-07-04T01:10:02;4.82;;;2.75;;
69087;SDS011;56190;43.562;5.036;2022-07-04T01:12:28;4.55;;;2.70;;
69087;SDS011;56190;43.562;5.036;2022-07-04T01:14:53;7.47;;;3.00;;
69087;SDS011;56190;43.562;5.036;2022-07-04T01:17:19;4.57;;;3.10;;
69087;SDS011;56190;43.562;5.036;2022-07-04T01:19:44;5.45;;;2.80;;
69087;SDS011;56190;43.562;5.036;2022-07-04T01:22:09;6.95;;;3.28;;
69087;SDS011;56190;43.562;5.036;2022-07-04T01:24:34;5.68;;;3.10;;
69087;SDS011;56190;43.562;5.036;2022-07-04T01:27:00;4.47;;;3.00;;
69087;SDS011;56190;43.562;5.036;2022-07-04T01:29:25;4.82;;;2.90;;
69087;SDS011;56190;43.562;5.036;2022-07-04T01:31:50;5.72;;;2.45;;
69087;SDS011;56190;43.562;5.036;2022-07-04T01:34:18;3.35;;;2.90;;
69087;SDS011;56190;43.562;5.036;2022-07-04T01:36:43;4.63;;;2.80;;
69087;SDS011;56190;43.562;5.036;2022-07-04T01:39:08;4.20;;;2.65;;
69087;SDS011;56190;43.562;5.036;2022-07-04T01:41:34;5.30;;;2.53;;
69087;SDS011;56190;43.562;5.036;2022-07-04T01:44:00;4.15;;;2.83;;
69087;SDS011;56190;43.562;5.036;2022-07-04T01:46:25;5.75;;;3.10;;
69087;SDS011;56190;43.562;5.036;2022-07-04T01:48:50;3.42;;;2.65;;
69087;SDS011;56190;43.562;5.036;2022-07-04T01:51:15;5.78;;;3.20;;
69087;SDS011;56190;43.562;5.036;2022-07-04T01:53:41;6.28;;;2.90;;
69087;SDS011;56190;43.562;5.036;2022-07-04T01:56:06;4.32;;;2.80;;
69087;SDS011;56190;43.562;5.036;2022-07-04T01:58:31;5.07;;;2.78;;
69087;SDS011;56190;43.562;5.036;2022-07-04T02:00:57;3.67;;;2.60;;
69087;SDS011;56190;43.562;5.036;2022-07-04T02:03:41;4.47;;;2.80;;
69087;SDS011;56190;43.562;5.036;2022-07-04T02:06:06;4.35;;;2.72;;
69087;SDS011;56190;43.562;5.036;2022-07-04T02:08:31;4.75;;;2.78;;
69087;SDS011;56190;43.562;5.036;2022-07-04T02:11:16;5.57;;;2.90;;
69087;SDS011;56190;43.562;5.036;2022-07-04T02:13:42;5.65;;;3.13;;
69087;SDS011;56190;43.562;5.036;2022-07-04T02:16:07;3.55;;;2.50;;
69087;SDS011;56190;43.562;5.036;2022-07-04T02:18:32;4.43;;;2.90;;
69087;SDS011;56190;43.562;5.036;2022-07-04T02:20:58;3.67;;;2.83;;
69087;SDS011;56190;43.562;5.036;2022-07-04T02:23:23;5.22;;;2.83;;
69087;SDS011;56190;43.562;5.036;2022-07-04T02:25:49;6.18;;;2.80;;
69087;SDS011;56190;43.562;5.036;2022-07-04T02:28:14;5.03;;;2.97;;
69087;SDS011;56190;43.562;5.036;2022-07-04T02:30:39;3.25;;;2.50;;
69087;SDS011;56190;43.562;5.036;2022-07-04T02:33:04;6.95;;;3.20;;
69087;SDS011;56190;43.562;5.036;2022-07-04T02:35:30;7.15;;;2.90;;
69087;SDS011;56190;43.562;5.036;2022-07-04T02:37:55;3.88;;;2.65;;
69087;SDS011;56190;43.562;5.036;2022-07-04T02:40:20;4.32;;;3.08;;
69087;SDS011;56190;43.562;5.036;2022-07-04T02:42:45;4.20;;;2.92;;
69087;SDS011;56190;43.562;5.036;2022-07-04T02:45:11;6.88;;;2.95;;
69087;SDS011;56190;43.562;5.036;2022-07-04T02:47:37;3.92;;;3.05;;
69087;SDS011;56190;43.562;5.036;2022-07-04T02:50:02;3.63;;;3.13;;
69087;SDS011;56190;43.562;5.036;2022-07-04T02:52:28;5.65;;;3.10;;
69087;SDS011;56190;43.562;5.036;2022-07-04T02:54:54;5.47;;;2.97;;
69087;SDS011;56190;43.562;5.036;2022-07-04T02:57:19;4.03;;;2.83;;
69087;SDS011;56190;43.562;5.036;2022-07-04T02:59:44;5.78;;;3.00;;
69087;SDS011;56190;43.562;5.036;2022-07-04T03:02:10;5.85;;;3.30;;
69087;SDS011;56190;43.562;5.036;2022-07-04T03:04:35;3.58;;;3.08;;
69087;SDS011;56190;43.562;5.036;2022-07-04T03:07:00;5.25;;;3.28;;
69087;SDS011;56190;43.562;5.036;2022-07-04T03:09:26;5.40;;;3.03;;
69087;SDS011;56190;43.562;5.036;2022-07-04T03:11:54;6.03;;;3.47;;
69087;SDS011;56190;43.562;5.036;2022-07-04T03:14:20;4.22;;;2.75;;
69087;SDS011;56190;43.562;5.036;2022-07-04T03:16:45;4.78;;;2.92;;
69087;SDS011;56190;43.562;5.036;2022-07-04T03:19:11;4.53;;;3.40;;
69087;SDS011;56190;43.562;5.036;2022-07-04T03:21:36;7.30;;;4.03;;
69087;SDS011;56190;43.562;5.036;2022-07-04T03:24:01;3.60;;;3.28;;
69087;SDS011;56190;43.562;5.036;2022-07-04T03:26:28;3.83;;;3.10;;
69087;SDS011;56190;43.562;5.036;2022-07-04T03:28:54;7.28;;;3.45;;
69087;SDS011;56190;43.562;5.036;2022-07-04T03:31:20;4.90;;;2.70;;
69087;SDS011;56190;43.562;5.036;2022-07-04T03:33:45;5.07;;;2.75;;
69087;SDS011;56190;43.562;5.036;2022-07-04T03:36:11;4.05;;;3.38;;
69087;SDS011;56190;43.562;5.036;2022-07-04T03:38:36;5.68;;;3.40;;
69087;SDS011;56190;43.562;5.036;2022-07-04T03:41:01;8.70;;;3.60;;
69087;SDS011;56190;43.562;5.036;2022-07-04T03:43:26;4.35;;;3.20;;
69087;SDS011;56190;43.562;5.036;2022-07-04T03:45:52;5.43;;;3.40;;
69087;SDS011;56190;43.562;5.036;2022-07-04T03:48:17;5.65;;;3.50;;
69087;SDS011;56190;43.562;5.036;2022-07-04T03:50:42;3.90;;;3.50;;
69087;SDS011;56190;43.562;5.036;2022-07-04T03:53:07;5.30;;;3.53;;
69087;SDS011;56190;43.562;5.036;2022-07-04T03:55:33;4.25;;;3.42;;
69087;SDS011;56190;43.562;5.036;2022-07-04T03:57:58;5.93;;;3.30;;
69087;SDS011;56190;43.562;5.036;2022-07-04T04:00:24;6.32;;;3.25;;
69087;SDS011;56190;43.562;5.036;2022-07-04T04:02:49;5.55;;;3.40;;
69087;SDS011;56190;43.562;5.036;2022-07-04T04:05:14;3.95;;;3.33;;
69087;SDS011;56190;43.562;5.036;2022-07-04T04:07:53;5.97;;;3.38;;
69087;SDS011;56190;43.562;5.036;2022-07-04T04:10:18;5.72;;;3.38;;
69087;SDS011;56190;43.562;5.036;2022-07-04T04:12:43;7.68;;;3.45;;
69087;SDS011;56190;43.562;5.036;2022-07-04T04:15:08;5.75;;;3.50;;
69087;SDS011;56190;43.562;5.036;2022-07-04T04:17:34;8.40;;;3.88;;
69087;SDS011;56190;43.562;5.036;2022-07-04T04:19:59;3.65;;;3.20;;
69087;SDS011;56190;43.562;5.036;2022-07-04T04:22:24;6.88;;;3.70;;
69087;SDS011;56190;43.562;5.036;2022-07-04T04:24:50;5.90;;;3.90;;
69087;SDS011;56190;43.562;5.036;2022-07-04T04:27:15;4.50;;;3.08;;
69087;SDS011;56190;43.562;5.036;2022-07-04T04:29:40;5.93;;;3.60;;
69087;SDS011;56190;43.562;5.036;2022-07-04T04:32:05;5.85;;;3.92;;
69087;SDS011;56190;43.562;5.036;2022-07-04T04:34:31;5.35;;;3.83;;
69087;SDS011;56190;43.562;5.036;2022-07-04T04:36:56;7.07;;;3.92;;
69087;SDS011;56190;43.562;5.036;2022-07-04T04:39:21;6.85;;;3.70;;
69087;SDS011;56190;43.562;5.036;2022-07-04T04:41:47;5.32;;;3.47;;
69087;SDS011;56190;43.562;5.036;2022-07-04T04:44:12;4.65;;;3.70;;
69087;SDS011;56190;43.562;5.036;2022-07-04T04:46:37;4.95;;;3.40;;
69087;SDS011;56190;43.562;5.036;2022-07-04T04:49:03;6.68;;;3.47;;
69087;SDS011;56190;43.562;5.036;2022-07-04T04:51:28;5.90;;;3.22;;
69087;SDS011;56190;43.562;5.036;2022-07-04T04:53:53;6.30;;;4.15;;
69087;SDS011;56190;43.562;5.036;2022-07-04T04:56:18;6.65;;;4.20;;
69087;SDS011;56190;43.562;5.036;2022-07-04T04:58:44;6.13;;;3.83;;
69087;SDS011;56190;43.562;5.036;2022-07-04T05:01:09;5.28;;;3.15;;
69087;SDS011;56190;43.562;5.036;2022-07-04T05:03:34;4.93;;;3.85;;
69087;SDS011;56190;43.562;5.036;2022-07-04T05:06:00;9.25;;;3.65;;
69087;SDS011;56190;43.562;5.036;2022-07-04T05:08:25;6.07;;;3.78;;
69087;SDS011;56190;43.562;5.036;2022-07-04T05:10:51;3.80;;;3.40;;
69087;SDS011;56190;43.562;5.036;2022-07-04T05:13:16;4.82;;;3.55;;
69087;SDS011;56190;43.562;5.036;2022-07-04T05:15:41;5.20;;;3.65;;
69087;SDS011;56190;43.562;5.036;2022-07-04T05:18:06;6.80;;;3.90;;
69087;SDS011;56190;43.562;5.036;2022-07-04T05:20:32;6.45;;;3.55;;
69087;SDS011;56190;43.562;5.036;2022-07-04T05:22:58;8.98;;;4.03;;
69087;SDS011;56190;43.562;5.036;2022-07-04T05:25:23;7.13;;;3.90;;
69087;SDS011;56190;43.562;5.036;2022-07-04T05:27:49;5.65;;;3.65;;
69087;SDS011;56190;43.562;5.036;2022-07-04T05:30:14;6.10;;;3.63;;
69087;SDS011;56190;43.562;5.036;2022-07-04T05:32:40;5.38;;;3.10;;
69087;SDS011;56190;43.562;5.036;2022-07-04T05:35:05;5.57;;;3.90;;
69087;SDS011;56190;43.562;5.036;2022-07-04T05:37:31;5.07;;;3.28;;
69087;SDS011;56190;43.562;5.036;2022-07-04T05:39:56;4.70;;;2.92;;
69087;SDS011;56190;43.562;5.036;2022-07-04T05:42:22;5.85;;;3.53;;
69087;SDS011;56190;43.562;5.036;2022-07-04T05:44:47;6.22;;;3.22;;
69087;SDS011;56190;43.562;5.036;2022-07-04T05:47:12;5.68;;;3.70;;
69087;SDS011;56190;43.562;5.036;2022-07-04T05:49:37;5.72;;;3.70;;
69087;SDS011;56190;43.562;5.036;2022-07-04T05:52:03;5.28;;;3.80;;
69087;SDS011;56190;43.562;5.036;2022-07-04T05:54:28;4.00;;;3.35;;
69087;SDS011;56190;43.562;5.036;2022-07-04T05:56:53;5.28;;;3.25;;
69087;SDS011;56190;43.562;5.036;2022-07-04T05:59:19;4.20;;;3.00;;
69087;SDS011;56190;43.562;5.036;2022-07-04T06:01:44;5.80;;;3.20;;
69087;SDS011;56190;43.562;5.036;2022-07-04T06:04:09;5.15;;;2.95;;
69087;SDS011;56190;43.562;5.036;2022-07-04T06:06:35;6.30;;;3.40;;
69087;SDS011;56190;43.562;5.036;2022-07-04T06:09:00;6.07;;;3.55;;
69087;SDS011;56190;43.562;5.036;2022-07-04T06:11:25;4.47;;;3.25;;
69087;SDS011;56190;43.562;5.036;2022-07-04T06:13:51;5.93;;;3.83;;
69087;SDS011;56190;43.562;5.036;2022-07-04T06:16:16;5.60;;;3.55;;
69087;SDS011;56190;43.562;5.036;2022-07-04T06:18:42;6.13;;;3.63;;
69087;SDS011;56190;43.562;5.036;2022-07-04T06:21:07;5.55;;;3.45;;
69087;SDS011;56190;43.562;5.036;2022-07-04T06:23:33;6.30;;;3.38;;
69087;SDS011;56190;43.562;5.036;2022-07-04T06:25:58;5.03;;;2.88;;
69087;SDS011;56190;43.562;5.036;2022-07-04T06:28:23;4.82;;;3.15;;
69087;SDS011;56190;43.562;5.036;2022-07-04T06:30:49;5.60;;;2.88;;
69087;SDS011;56190;43.562;5.036;2022-07-04T06:33:14;6.75;;;3.30;;
69087;SDS011;56190;43.562;5.036;2022-07-04T06:35:39;5.20;;;2.80;;
69087;SDS011;56190;43.562;5.036;2022-07-04T06:38:32;4.32;;;2.80;;
69087;SDS011;56190;43.562;5.036;2022-07-04T06:40:57;5.35;;;2.72;;
69087;SDS011;56190;43.562;5.036;2022-07-04T06:43:23;3.65;;;2.83;;
69087;SDS011;56190;43.562;5.036;2022-07-04T06:45:48;4.38;;;2.50;;
69087;SDS011;56190;43.562;5.036;2022-07-04T06:48:14;4.97;;;2.70;;
69087;SDS011;56190;43.562;5.036;2022-07-04T06:50:39;5.25;;;2.60;;
69087;SDS011;56190;43.562;5.036;2022-07-04T06:53:05;4.60;;;2.63;;
69087;SDS011;56190;43.562;5.036;2022-07-04T06:55:31;4.60;;;2.78;;
69087;SDS011;56190;43.562;5.036;2022-07-04T06:57:56;4.25;;;2.70;;
69087;SDS011;56190;43.562;5.036;2022-07-04T07:00:22;6.22;;;2.72;;
69087;SDS011;56190;43.562;5.036;2022-07-04T07:02:47;5.07;;;3.13;;
69087;SDS011;56190;43.562;5.036;2022-07-04T07:05:13;5.75;;;3.15;;
69087;SDS011;56190;43.562;5.036;2022-07-04T07:07:38;4.97;;;3.05;;
69087;SDS011;56190;43.562;5.036;2022-07-04T07:10:03;4.50;;;2.80;;
69087;SDS011;56190;43.562;5.036;2022-07-04T07:12:31;3.45;;;3.15;;
69087;SDS011;56190;43.562;5.036;2022-07-04T07:14:56;4.03;;;2.72;;
69087;SDS011;56190;43.562;5.036;2022-07-04T07:17:22;4.00;;;2.97;;
69087;SDS011;56190;43.562;5.036;2022-07-04T07:19:47;5.78;;;3.10;;
69087;SDS011;56190;43.562;5.036;2022-07-04T07:22:12;4.38;;;3.00;;
69087;SDS011;56190;43.562;5.036;2022-07-04T07:24:38;4.57;;;2.80;;
69087;SDS011;56190;43.562;5.036;2022-07-04T07:27:04;4.70;;;2.78;;
69087;SDS011;56190;43.562;5.036;2022-07-04T07:29:30;4.15;;;2.83;;
69087;SDS011;56190;43.562;5.036;2022-07-04T07:31:55;5.20;;;3.00;;
69087;SDS011;56190;43.562;5.036;2022-07-04T07:34:20;4.32;;;3.00;;
69087;SDS011;56190;43.562;5.036;2022-07-04T07:36:46;4.53;;;2.60;;
69087;SDS011;56190;43.562;5.036;2022-07-04T07:39:11;4.75;;;2.90;;
69087;SDS011;56190;43.562;5.036;2022-07-04T07:41:36;4.40;;;2.63;;
69087;SDS011;56190;43.562;5.036;2022-07-04T07:44:01;13.73;;;4.22;;
69087;SDS011;56190;43.562;5.036;2022-07-04T07:46:27;8.98;;;3.78;;
69087;SDS011;56190;43.562;5.036;2022-07-04T07:48:52;4.25;;;2.80;;
69087;SDS011;56190;43.562;5.036;2022-07-04T07:51:17;4.55;;;2.78;;
69087;SDS011;56190;43.562;5.036;2022-07-04T07:53:43;3.63;;;2.95;;
69087;SDS011;56190;43.562;5.036;2022-07-04T07:56:08;5.47;;;3.08;;
69087;SDS011;56190;43.562;5.036;2022-07-04T07:58:34;6.63;;;3.13;;
69087;SDS011;56190;43.562;5.036;2022-07-04T08:00:59;6.15;;;3.03;;
69087;SDS011;56190;43.562;5.036;2022-07-04T08:03:26;19.60;;;4.10;;
69087;SDS011;56190;43.562;5.036;2022-07-04T08:06:10;6.38;;;3.03;;
69087;SDS011;56190;43.562;5.036;2022-07-04T08:08:36;5.55;;;2.90;;
69087;SDS011;56190;43.562;5.036;2022-07-04T08:11:02;7.10;;;2.83;;
69087;SDS011;56190;43.562;5.036;2022-07-04T08:13:28;4.28;;;2.80;;
69087;SDS011;56190;43.562;5.036;2022-07-04T08:15:53;4.57;;;3.08;;
69087;SDS011;56190;43.562;5.036;2022-07-04T08:18:18;6.22;;;2.55;;
69087;SDS011;56190;43.562;5.036;2022-07-04T08:20:44;3.05;;;2.28;;
69087;SDS011;56190;43.562;5.036;2022-07-04T08:23:09;3.05;;;2.60;;
69087;SDS011;56190;43.562;5.036;2022-07-04T08:25:34;5.95;;;2.85;;
69087;SDS011;56190;43.562;5.036;2022-07-04T08:28:00;11.15;;;3.33;;
69087;SDS011;56190;43.562;5.036;2022-07-04T08:30:25;4.50;;;3.00;;
69087;SDS011;56190;43.562;5.036;2022-07-04T08:32:50;6.28;;;3.05;;
69087;SDS011;56190;43.562;5.036;2022-07-04T08:35:15;5.18;;;2.97;;
69087;SDS011;56190;43.562;5.036;2022-07-04T08:37:41;5.80;;;2.83;;
69087;SDS011;56190;43.562;5.036;2022-07-04T08:40:07;12.52;;;3.40;;
69087;SDS011;56190;43.562;5.036;2022-07-04T08:42:36;6.00;;;3.03;;
69087;SDS011;56190;43.562;5.036;2022-07-04T08:45:02;5.80;;;2.92;;
69087;SDS011;56190;43.562;5.036;2022-07-04T08:47:29;6.32;;;2.92;;
69087;SDS011;56190;43.562;5.036;2022-07-04T08:52:29;5.38;;;2.92;;
69087;SDS011;56190;43.562;5.036;2022-07-04T08:54:55;6.55;;;2.95;;
69087;SDS011;56190;43.562;5.036;2022-07-04T08:57:40;7.05;;;3.42;;
69087;SDS011;56190;43.562;5.036;2022-07-04T09:00:24;10.32;;;3.72;;
69087;SDS011;56190;43.562;5.036;2022-07-04T09:02:49;4.70;;;2.75;;
69087;SDS011;56190;43.562;5.036;2022-07-04T09:05:15;5.30;;;3.08;;
69087;SDS011;56190;43.562;5.036;2022-07-04T09:07:41;5.55;;;2.65;;
69087;SDS011;56190;43.562;5.036;2022-07-04T09:10:06;5.53;;;2.70;;
69087;SDS011;56190;43.562;5.036;2022-07-04T09:12:32;3.90;;;2.40;;
69087;SDS011;56190;43.562;5.036;2022-07-04T09:14:57;5.05;;;2.10;;
69087;SDS011;56190;43.562;5.036;2022-07-04T09:17:24;3.67;;;2.33;;
69087;SDS011;56190;43.562;5.036;2022-07-04T09:22:33;4.32;;;2.28;;
69087;SDS011;56190;43.562;5.036;2022-07-04T09:24:59;3.80;;;1.90;;
69087;SDS011;56190;43.562;5.036;2022-07-04T09:27:31;3.78;;;2.25;;
69087;SDS011;56190;43.562;5.036;2022-07-04T09:29:57;4.78;;;2.35;;
69087;SDS011;56190;43.562;5.036;2022-07-04T09:32:38;4.88;;;2.35;;
69087;SDS011;56190;43.562;5.036;2022-07-04T09:35:05;8.57;;;2.47;;
69087;SDS011;56190;43.562;5.036;2022-07-04T09:37:35;5.32;;;2.50;;
69087;SDS011;56190;43.562;5.036;2022-07-04T09:40:01;4.43;;;2.13;;
69087;SDS011;56190;43.562;5.036;2022-07-04T09:42:33;7.25;;;2.58;;
69087;SDS011;56190;43.562;5.036;2022-07-04T09:44:58;5.07;;;2.50;;
69087;SDS011;56190;43.562;5.036;2022-07-04T09:47:28;4.28;;;2.20;;
69087;SDS011;56190;43.562;5.036;2022-07-04T09:50:01;4.75;;;2.20;;
69087;SDS011;56190;43.562;5.036;2022-07-04T09:52:26;8.25;;;2.47;;
69087;SDS011;56190;43.562;5.036;2022-07-04T09:54:56;5.00;;;2.10;;
69087;SDS011;56190;43.562;5.036;2022-07-04T09:57:22;5.13;;;2.40;;
69087;SDS011;56190;43.562;5.036;2022-07-04T09:59:47;3.22;;;2.45;;
69087;SDS011;56190;43.562;5.036;2022-07-04T10:02:12;6.15;;;2.83;;
69087;SDS011;56190;43.562;5.036;2022-07-04T10:04:52;8.60;;;2.85;;
69087;SDS011;56190;43.562;5.036;2022-07-04T10:07:30;6.65;;;2.30;;
69087;SDS011;56190;43.562;5.036;2022-07-04T10:09:55;13.20;;;3.25;;
69087;SDS011;56190;43.562;5.036;2022-07-04T10:12:27;5.53;;;2.03;;
69087;SDS011;56190;43.562;5.036;2022-07-04T10:14:56;6.50;;;2.28;;
69087;SDS011;56190;43.562;5.036;2022-07-04T10:17:21;3.10;;;1.90;;
69087;SDS011;56190;43.562;5.036;2022-07-04T10:19:47;6.35;;;2.20;;
69087;SDS011;56190;43.562;5.036;2022-07-04T10:22:12;4.40;;;2.67;;
69087;SDS011;56190;43.562;5.036;2022-07-04T10:24:38;5.35;;;2.30;;
69087;SDS011;56190;43.562;5.036;2022-07-04T10:27:03;5.00;;;2.00;;
69087;SDS011;56190;43.562;5.036;2022-07-04T10:29:29;6.53;;;2.03;;
69087;SDS011;56190;43.562;5.036;2022-07-04T10:31:54;3.97;;;2.00;;
69087;SDS011;56190;43.562;5.036;2022-07-04T10:34:20;5.95;;;1.95;;
69087;SDS011;56190;43.562;5.036;2022-07-04T10:36:50;4.25;;;2.20;;
69087;SDS011;56190;43.562;5.036;2022-07-04T10:39:21;3.92;;;2.38;;
69087;SDS011;56190;43.562;5.036;2022-07-04T10:41:56;8.38;;;2.20;;
69087;SDS011;56190;43.562;5.036;2022-07-04T10:44:23;3.72;;;2.10;;
69087;SDS011;56190;43.562;5.036;2022-07-04T10:46:52;5.00;;;1.90;;
69087;SDS011;56190;43.562;5.036;2022-07-04T10:49:22;3.88;;;2.05;;
69087;SDS011;56190;43.562;5.036;2022-07-04T10:59:12;4.72;;;2.08;;
69087;SDS011;56190;43.562;5.036;2022-07-04T11:01:38;5.78;;;1.90;;
69087;SDS011;56190;43.562;5.036;2022-07-04T11:04:03;7.28;;;2.25;;
69087;SDS011;56190;43.562;5.036;2022-07-04T11:14:30;5.90;;;2.05;;
69087;SDS011;56190;43.562;5.036;2022-07-04T11:16:56;5.28;;;1.98;;
69087;SDS011;56190;43.562;5.036;2022-07-04T11:19:21;9.68;;;2.50;;
69087;SDS011;56190;43.562;5.036;2022-07-04T11:21:47;5.93;;;2.28;;
69087;SDS011;56190;43.562;5.036;2022-07-04T11:24:12;6.57;;;2.13;;
69087;SDS011;56190;43.562;5.036;2022-07-04T11:26:37;5.80;;;2.10;;
69087;SDS011;56190;43.562;5.036;2022-07-04T11:29:03;6.25;;;1.90;;
69087;SDS011;56190;43.562;5.036;2022-07-04T11:31:35;11.85;;;3.15;;
69087;SDS011;56190;43.562;5.036;2022-07-04T11:34:00;5.85;;;1.77;;
69087;SDS011;56190;43.562;5.036;2022-07-04T11:36:25;5.70;;;2.05;;
69087;SDS011;56190;43.562;5.036;2022-07-04T11:38:57;6.80;;;1.65;;
69087;SDS011;56190;43.562;5.036;2022-07-04T11:44:07;3.58;;;1.80;;
69087;SDS011;56190;43.562;5.036;2022-07-04T11:47:00;7.15;;;2.20;;
69087;SDS011;56190;43.562;5.036;2022-07-04T11:49:26;6.28;;;1.88;;
69087;SDS011;56190;43.562;5.036;2022-07-04T11:51:51;4.82;;;1.73;;
69087;SDS011;56190;43.562;5.036;2022-07-04T11:54:18;4.55;;;1.70;;
69087;SDS011;56190;43.562;5.036;2022-07-04T11:56:44;6.60;;;1.60;;
69087;SDS011;56190;43.562;5.036;2022-07-04T11:59:13;3.85;;;1.73;;
69087;SDS011;56190;43.562;5.036;2022-07-04T12:01:39;4.85;;;1.70;;
69087;SDS011;56190;43.562;5.036;2022-07-04T12:04:11;4.18;;;1.60;;
69087;SDS011;56190;43.562;5.036;2022-07-04T12:06:36;6.20;;;1.90;;
69087;SDS011;56190;43.562;5.036;2022-07-04T12:09:01;3.70;;;1.88;;
69087;SDS011;56190;43.562;5.036;2022-07-04T12:14:13;5.97;;;1.75;;
69087;SDS011;56190;43.562;5.036;2022-07-04T12:16:38;6.78;;;1.75;;
69087;SDS011;56190;43.562;5.036;2022-07-04T12:19:10;4.35;;;1.70;;
69087;SDS011;56190;43.562;5.036;2022-07-04T12:24:01;5.55;;;1.42;;
69087;SDS011;56190;43.562;5.036;2022-07-04T12:26:30;8.32;;;1.80;;
69087;SDS011;56190;43.562;5.036;2022-07-04T12:28:56;8.02;;;2.00;;
69087;SDS011;56190;43.562;5.036;2022-07-04T12:31:43;4.95;;;1.70;;
69087;SDS011;56190;43.562;5.036;2022-07-04T12:34:14;3.97;;;1.58;;
69087;SDS011;56190;43.562;5.036;2022-07-04T12:36:49;6.70;;;2.20;;
69087;SDS011;56190;43.562;5.036;2022-07-04T12:39:26;3.80;;;1.65;;
69087;SDS011;56190;43.562;5.036;2022-07-04T12:42:02;6.45;;;1.60;;
69087;SDS011;56190;43.562;5.036;2022-07-04T12:44:28;5.15;;;1.50;;
69087;SDS011;56190;43.562;5.036;2022-07-04T12:46:55;3.10;;;1.48;;
69087;SDS011;56190;43.562;5.036;2022-07-04T12:49:21;7.18;;;1.67;;
69087;SDS011;56190;43.562;5.036;2022-07-04T12:51:46;4.47;;;1.73;;
69087;SDS011;56190;43.562;5.036;2022-07-04T12:54:11;7.32;;;1.65;;
69087;SDS011;56190;43.562;5.036;2022-07-04T12:56:44;4.53;;;1.63;;
69087;SDS011;56190;43.562;5.036;2022-07-04T12:59:10;5.10;;;1.40;;
69087;SDS011;56190;43.562;5.036;2022-07-04T13:01:37;6.80;;;1.60;;
69087;SDS011;56190;43.562;5.036;2022-07-04T13:04:02;6.90;;;1.90;;
69087;SDS011;56190;43.562;5.036;2022-07-04T13:06:27;6.72;;;1.80;;
69087;SDS011;56190;43.562;5.036;2022-07-04T13:08:53;4.32;;;1.50;;
69087;SDS011;56190;43.562;5.036;2022-07-04T13:11:19;6.50;;;2.00;;
69087;SDS011;56190;43.562;5.036;2022-07-04T13:14:03;5.40;;;1.50;;
69087;SDS011;56190;43.562;5.036;2022-07-04T13:16:28;6.88;;;2.05;;
69087;SDS011;56190;43.562;5.036;2022-07-04T13:18:53;5.95;;;1.38;;
69087;SDS011;56190;43.562;5.036;2022-07-04T13:21:18;9.52;;;1.67;;
69087;SDS011;56190;43.562;5.036;2022-07-04T13:23:44;5.25;;;1.40;;
69087;SDS011;56190;43.562;5.036;2022-07-04T13:26:09;5.32;;;1.40;;
69087;SDS011;56190;43.562;5.036;2022-07-04T13:28:34;5.50;;;2.15;;
69087;SDS011;56190;43.562;5.036;2022-07-04T13:31:00;4.90;;;1.60;;
69087;SDS011;56190;43.562;5.036;2022-07-04T13:33:25;3.40;;;1.65;;
69087;SDS011;56190;43.562;5.036;2022-07-04T13:35:51;3.80;;;1.35;;
69087;SDS011;56190;43.562;5.036;2022-07-04T13:38:16;4.18;;;1.25;;
69087;SDS011;56190;43.562;5.036;2022-07-04T13:40:43;5.13;;;1.77;;
69087;SDS011;56190;43.562;5.036;2022-07-04T13:43:08;7.30;;;1.60;;
69087;SDS011;56190;43.562;5.036;2022-07-04T13:45:37;5.35;;;1.77;;
69087;SDS011;56190;43.562;5.036;2022-07-04T13:48:04;4.13;;;1.63;;
69087;SDS011;56190;43.562;5.036;2022-07-04T13:50:29;4.50;;;1.33;;
69087;SDS011;56190;43.562;5.036;2022-07-04T13:52:55;5.15;;;1.55;;
69087;SDS011;56190;43.562;5.036;2022-07-04T13:55:20;3.58;;;1.33;;
69087;SDS011;56190;43.562;5.036;2022-07-04T13:57:45;5.05;;;1.73;;
69087;SDS011;56190;43.562;5.036;2022-07-04T14:00:11;6.00;;;1.83;;
69087;SDS011;56190;43.562;5.036;2022-07-04T14:02:36;10.60;;;1.70;;
69087;SDS011;56190;43.562;5.036;2022-07-04T14:05:02;4.55;;;1.70;;
69087;SDS011;56190;43.562;5.036;2022-07-04T14:07:27;5.38;;;1.58;;
69087;SDS011;56190;43.562;5.036;2022-07-04T14:09:53;5.63;;;1.40;;
69087;SDS011;56190;43.562;5.036;2022-07-04T14:12:18;6.35;;;1.42;;
69087;SDS011;56190;43.562;5.036;2022-07-04T14:14:43;7.80;;;1.20;;
69087;SDS011;56190;43.562;5.036;2022-07-04T14:17:09;4.35;;;1.90;;
69087;SDS011;56190;43.562;5.036;2022-07-04T14:19:34;5.90;;;1.80;;
69087;SDS011;56190;43.562;5.036;2022-07-04T14:22:00;8.57;;;1.63;;
69087;SDS011;56190;43.562;5.036;2022-07-04T14:24:25;7.00;;;1.80;;
69087;SDS011;56190;43.562;5.036;2022-07-04T14:26:51;4.15;;;1.40;;
69087;SDS011;56190;43.562;5.036;2022-07-04T14:29:17;5.65;;;1.85;;
69087;SDS011;56190;43.562;5.036;2022-07-04T14:31:42;3.55;;;1.80;;
69087;SDS011;56190;43.562;5.036;2022-07-04T14:34:07;7.38;;;1.88;;
69087;SDS011;56190;43.562;5.036;2022-07-04T14:36:35;5.88;;;1.60;;
69087;SDS011;56190;43.562;5.036;2022-07-04T14:39:00;4.55;;;1.60;;
69087;SDS011;56190;43.562;5.036;2022-07-04T14:41:26;5.32;;;1.67;;
69087;SDS011;56190;43.562;5.036;2022-07-04T14:43:51;4.72;;;1.58;;
69087;SDS011;56190;43.562;5.036;2022-07-04T14:46:17;5.53;;;2.00;;
69087;SDS011;56190;43.562;5.036;2022-07-04T14:48:42;8.68;;;2.67;;
69087;SDS011;56190;43.562;5.036;2022-07-04T14:51:07;5.70;;;3.33;;
69087;SDS011;56190;43.562;5.036;2022-07-04T14:53:33;6.60;;;3.08;;
69087;SDS011;56190;43.562;5.036;2022-07-04T14:55:58;6.97;;;3.17;;
69087;SDS011;56190;43.562;5.036;2022-07-04T14:58:23;6.88;;;4.47;;
69087;SDS011;56190;43.562;5.036;2022-07-04T15:00:49;7.05;;;3.50;;
69087;SDS011;56190;43.562;5.036;2022-07-04T15:03:14;5.22;;;3.63;;
69087;SDS011;56190;43.562;5.036;2022-07-04T15:05:41;5.60;;;2.58;;
69087;SDS011;56190;43.562;5.036;2022-07-04T15:08:06;6.03;;;2.80;;
69087;SDS011;56190;43.562;5.036;2022-07-04T15:10:31;4.93;;;2.50;;
69087;SDS011;56190;43.562;5.036;2022-07-04T15:12:57;7.80;;;2.80;;